Time;durP1;ratioP1;P1;durP2;ratioP2;P2;SDS_P1;SDS_P2;PMS_P1;PMS_P2;Temp;Humidity;BMP_temperature;BMP_pressure;BME280_temperature;BME280_humidity;BME280_pressure;Samples;Min_cycle;Max_cycle;Signal;HPM_P1;HPM_P2
2022/09/05 06:22:47;;;;;;;8.68;5.07;;;16.90;99.90;;;;;;5131288;23;20390;-82
2022/09/05 06:25:26;;;;;;;5.70;5.10;;;17.00;99.90;;;;;;4956935;28;20138;-83
2022/09/05 06:28:10;;;;;;;7.43;5.82;;;17.20;99.90;;;;;;4955629;28;20158;-83
2022/09/05 06:31:00;;;;;;;13.10;5.00;;;17.30;99.90;;;;;;4935412;29;20047;-82
2022/09/05 06:33:41;;;;;;;9.40;5.25;;;17.50;99.90;;;;;;4948961;28;20134;-82
2022/09/05 06:36:13;;;;;;;7.20;5.43;;;17.60;99.90;;;;;;4939865;29;20051;-83
2022/09/05 06:38:38;;;;;;;5.70;5.10;;;17.70;99.90;;;;;;4955993;29;20078;-82
2022/09/05 06:41:14;;;;;;;8.13;5.35;;;17.80;99.90;;;;;;4940118;29;20075;-82
2022/09/05 06:44:12;;;;;;;12.90;5.70;;;17.90;99.90;;;;;;4956103;29;20482;-82
2022/09/05 06:46:43;;;;;;;12.48;6.80;;;18.00;99.90;;;;;;4921881;29;20048;-82
2022/09/05 06:49:24;;;;;;;5.05;4.55;;;18.10;99.90;;;;;;4926942;29;20047;-82
2022/09/05 06:52:14;;;;;;;7.07;4.72;;;18.20;99.90;;;;;;4955736;29;20050;-82
2022/09/05 06:54:49;;;;;;;5.13;4.63;;;18.30;99.90;;;;;;4955702;29;20097;-83
2022/09/05 06:57:14;;;;;;;;;;;18.50;99.90;;;;;;4956284;29;20043;-82
2022/09/05 06:59:46;;;;;;;9.00;4.82;;;18.50;99.90;;;;;;4956818;29;19922;-82
2022/09/05 07:02:40;;;;;;;7.75;5.10;;;18.60;99.90;;;;;;4955525;29;20039;-82
2022/09/05 07:05:12;;;;;;;6.53;4.68;;;18.80;99.90;;;;;;4939854;29;20427;-82
2022/09/05 07:07:53;;;;;;;8.70;5.00;;;18.90;99.90;;;;;;4955339;29;20047;-82
2022/09/05 07:10:28;;;;;;;8.30;4.60;;;19.00;99.90;;;;;;4938173;29;20047;-83
2022/09/05 07:13:15;;;;;;;6.20;4.75;;;19.10;99.90;;;;;;4954744;29;20196;-82
2022/09/05 07:16:17;;;;;;;6.15;4.70;;;19.20;99.90;;;;;;4955618;29;20106;-83
2022/09/05 07:19:15;;;;;;;6.97;4.60;;;19.30;99.90;;;;;;4954325;29;20051;-82
2022/09/05 07:21:59;;;;;;;9.07;4.57;;;19.40;99.90;;;;;;4955518;28;20043;-82
2022/09/05 07:24:27;;;;;;;5.28;4.50;;;19.50;99.90;;;;;;4939324;29;20047;-82
2022/09/05 07:26:57;;;;;;;8.95;5.65;;;19.60;99.90;;;;;;4956585;28;20151;-83
2022/09/05 07:29:31;;;;;;;5.30;4.55;;;19.70;99.90;;;;;;4955351;28;20134;-82
2022/09/05 07:31:59;;;;;;;4.93;4.40;;;19.80;99.90;;;;;;4964547;28;20050;-82
2022/09/05 07:34:30;;;;;;;6.20;4.40;;;19.90;99.90;;;;;;4953550;29;20130;-83
2022/09/05 07:37:01;;;;;;;11.90;4.30;;;20.00;99.90;;;;;;4956188;29;20403;-82
2022/09/05 07:39:34;;;;;;;7.90;4.95;;;20.10;99.90;;;;;;4938027;29;20523;-82
2022/09/05 07:42:05;;;;;;;5.30;4.18;;;20.20;99.90;;;;;;4955843;29;20505;-83
2022/09/05 07:44:39;;;;;;;6.78;4.28;;;20.30;99.90;;;;;;4954827;29;20055;-82
2022/09/05 07:47:27;;;;;;;6.82;4.40;;;20.30;99.90;;;;;;4956360;28;20426;-83
2022/09/05 07:49:54;;;;;;;7.57;4.22;;;20.40;99.90;;;;;;4954889;29;20083;-83
2022/09/05 07:52:24;;;;;;;7.10;5.20;;;20.50;99.90;;;;;;4955323;28;20058;-83
2022/09/05 07:54:52;;;;;;;6.25;4.50;;;20.50;99.90;;;;;;4954963;28;20051;-82
2022/09/05 07:57:22;;;;;;;5.63;4.55;;;20.60;99.90;;;;;;4956949;28;20047;-82
2022/09/05 07:59:53;;;;;;;9.15;5.28;;;20.70;99.90;;;;;;4955720;29;20098;-82
2022/09/05 08:02:19;;;;;;;9.90;4.40;;;20.70;99.90;;;;;;4954029;29;20059;-83
2022/09/05 08:04:45;;;;;;;9.05;4.85;;;20.80;99.90;;;;;;4963381;28;20134;-82
2022/09/05 08:07:28;;;;;;;6.15;4.65;;;20.90;99.90;;;;;;4974095;28;20130;-82
2022/09/05 08:10:00;;;;;;;6.70;4.22;;;21.00;99.90;;;;;;4937448;29;20052;-84
2022/09/05 08:12:37;;;;;;;4.55;4.15;;;21.00;99.90;;;;;;4936759;29;20055;-83
2022/09/05 08:15:17;;;;;;;8.40;4.65;;;21.10;99.90;;;;;;4960233;28;20053;-83
2022/09/05 08:18:13;;;;;;;8.95;4.80;;;21.20;99.90;;;;;;4969334;28;20039;-84
2022/09/05 08:20:51;;;;;;;8.90;4.18;;;21.20;99.90;;;;;;4954545;29;20058;-82
2022/09/05 08:23:39;;;;;;;8.45;4.20;;;21.30;99.90;;;;;;4954589;28;20126;-83
2022/09/05 08:26:31;;;;;;;10.68;4.50;;;21.40;99.90;;;;;;4952400;28;20553;-83
2022/09/05 08:29:31;;;;;;;6.55;4.45;;;21.50;99.90;;;;;;4937423;29;20039;-83
2022/09/05 08:32:12;;;;;;;5.15;4.18;;;21.60;99.90;;;;;;4952784;29;20055;-84
2022/09/05 08:34:48;;;;;;;6.38;4.30;;;21.60;99.90;;;;;;4925425;29;20052;-83
2022/09/05 08:37:20;;;;;;;7.75;4.03;;;21.70;99.90;;;;;;4939573;29;20126;-83
2022/09/05 08:39:52;;;;;;;10.68;5.43;;;21.90;99.90;;;;;;4955525;29;20057;-83
2022/09/05 08:42:23;;;;;;;5.95;3.83;;;22.00;99.90;;;;;;4959461;28;20043;-82
2022/09/05 08:45:14;;;;;;;7.78;3.15;;;22.10;99.90;;;;;;4954287;29;20506;-83
2022/09/05 08:48:00;;;;;;;6.65;4.15;;;22.20;99.90;;;;;;4963551;28;20054;-82
2022/09/05 08:50:58;;;;;;;4.50;3.10;;;22.30;99.90;;;;;;4967245;28;20047;-83
2022/09/05 08:53:42;;;;;;;8.07;3.97;;;22.40;99.90;;;;;;4954369;29;20134;-83
2022/09/05 08:56:20;;;;;;;5.03;4.18;;;22.50;99.90;;;;;;4953604;28;20050;-82
2022/09/05 08:59:09;;;;;;;6.05;4.15;;;22.70;99.90;;;;;;4953913;28;20461;-82
2022/09/05 09:01:52;;;;;;;5.63;3.83;;;22.80;99.90;;;;;;4936653;29;20044;-82
2022/09/05 09:04:41;;;;;;;7.00;3.92;;;22.90;99.90;;;;;;4939683;29;20126;-80
2022/09/05 09:07:16;;;;;;;5.88;4.22;;;23.00;99.90;;;;;;4955584;28;20569;-81
2022/09/05 09:09:55;;;;;;;4.32;3.50;;;23.10;99.90;;;;;;4953368;29;20078;-81
2022/09/05 09:12:27;;;;;;;9.13;3.28;;;23.20;99.90;;;;;;4954916;29;20043;-80
2022/09/05 09:15:08;;;;;;;5.13;3.90;;;23.30;99.90;;;;;;4953612;28;20055;-81
2022/09/05 09:17:34;;;;;;;4.35;3.30;;;23.40;99.90;;;;;;4951181;28;20545;-81
2022/09/05 09:20:14;;;;;;;7.50;3.45;;;23.50;99.90;;;;;;4953821;28;20043;-81
2022/09/05 09:22:46;;;;;;;4.78;3.70;;;23.70;99.90;;;;;;4954163;29;20058;-81
2022/09/05 09:25:11;;;;;;;8.20;3.40;;;23.70;99.90;;;;;;4954113;28;20116;-82
2022/09/05 09:28:03;;;;;;;7.10;3.42;;;23.80;99.90;;;;;;4954680;29;20051;-81
2022/09/05 09:30:32;;;;;;;6.82;2.90;;;23.90;99.90;;;;;;4918269;28;20479;-81
2022/09/05 09:33:05;;;;;;;7.38;2.85;;;23.90;99.90;;;;;;4954305;28;20106;-81
2022/09/05 09:35:45;;;;;;;5.35;3.42;;;24.00;99.90;;;;;;4951877;28;20049;-81
2022/09/05 09:38:38;;;;;;;13.48;4.28;;;24.10;99.90;;;;;;4952460;29;20043;-81
2022/09/05 09:41:25;;;;;;;11.85;3.30;;;24.30;99.90;;;;;;4953973;28;20047;-81
2022/09/05 09:43:56;;;;;;;3.40;2.70;;;24.40;99.90;;;;;;4940924;29;20114;-81
2022/09/05 09:46:43;;;;;;;3.88;1.90;;;24.40;99.90;;;;;;4954438;29;20051;-81
2022/09/05 09:49:20;;;;;;;3.30;2.30;;;24.50;99.90;;;;;;4944832;29;20076;-81
2022/09/05 09:52:18;;;;;;;6.22;2.80;;;24.60;99.90;;;;;;4954264;29;20047;-81
2022/09/05 09:54:53;;;;;;;5.68;2.35;;;24.70;99.90;;;;;;4973027;28;20058;-81
2022/09/05 09:57:37;;;;;;;4.32;2.55;;;24.70;99.90;;;;;;4972537;28;20035;-81
2022/09/05 10:00:06;;;;;;;3.38;2.60;;;24.80;99.90;;;;;;4958383;29;20039;-81
2022/09/05 10:03:09;;;;;;;3.53;2.70;;;24.80;99.90;;;;;;4957692;29;20527;-81
2022/09/05 10:05:44;;;;;;;10.48;2.60;;;24.90;99.90;;;;;;4958748;28;20051;-82
2022/09/05 10:08:36;;;;;;;4.25;2.63;;;25.00;99.90;;;;;;4957145;28;20502;-81
2022/09/05 10:11:08;;;;;;;6.93;3.00;;;25.10;99.90;;;;;;4956574;29;20046;-81
2022/09/05 10:14:04;;;;;;;6.35;2.38;;;25.20;99.90;;;;;;4956742;28;20055;-81
2022/09/05 10:16:52;;;;;;;5.05;2.10;;;25.30;99.90;;;;;;4956753;29;20043;-82
2022/09/05 10:19:42;;;;;;;6.25;2.05;;;25.40;99.90;;;;;;4957693;29;20142;-81
2022/09/05 10:22:32;;;;;;;6.88;2.85;;;25.50;99.90;;;;;;4957515;28;20102;-80
2022/09/05 10:25:16;;;;;;;9.02;2.90;;;25.60;99.80;;;;;;4956469;29;20054;-81
2022/09/05 10:27:45;;;;;;;;;;;25.70;99.10;;;;;;4958859;29;20419;-80
2022/09/05 10:30:20;;;;;;;6.40;2.20;;;25.80;98.80;;;;;;4955289;28;20267;-81
2022/09/05 10:33:31;;;;;;;2.50;2.10;;;25.90;98.40;;;;;;4958405;29;20102;-81
2022/09/05 10:36:23;;;;;;;3.22;2.20;;;25.90;97.30;;;;;;4955312;29;20086;-81
2022/09/05 10:38:59;;;;;;;3.10;1.98;;;26.00;97.70;;;;;;4956923;29;20053;-81
2022/09/05 10:41:50;;;;;;;9.32;3.47;;;26.00;97.50;;;;;;4957157;29;20459;-81
2022/09/05 10:44:30;;;;;;;6.90;2.65;;;26.10;97.40;;;;;;4956472;29;20046;-81
2022/09/05 10:47:05;;;;;;;3.30;2.40;;;26.20;97.50;;;;;;4958150;29;20053;-81
2022/09/05 10:49:39;;;;;;;4.75;2.17;;;26.30;96.80;;;;;;4956413;29;20094;-81
2022/09/05 10:52:10;;;;;;;5.10;2.00;;;26.30;95.60;;;;;;4958067;29;20118;-81
2022/09/05 10:55:07;;;;;;;9.40;2.10;;;26.40;95.50;;;;;;4955872;29;20055;-81
2022/09/05 10:57:36;;;;;;;8.50;2.08;;;26.50;95.30;;;;;;4956844;28;20049;-81
2022/09/05 11:00:26;;;;;;;3.80;2.58;;;26.60;95.10;;;;;;4955820;28;20070;-83
2022/09/05 11:02:56;;;;;;;3.50;1.80;;;26.60;94.70;;;;;;4943916;28;20388;-84
2022/09/05 11:05:25;;;;;;;2.50;1.77;;;26.70;94.50;;;;;;4956856;28;20036;-82
2022/09/05 11:08:00;;;;;;;4.50;1.63;;;26.70;94.00;;;;;;4956704;28;20098;-82
2022/09/05 11:10:43;;;;;;;3.38;1.60;;;26.70;93.70;;;;;;4936600;29;20046;-82
2022/09/05 11:13:48;;;;;;;2.45;1.48;;;26.80;92.50;;;;;;4940004;29;20051;-81
2022/09/05 11:16:26;;;;;;;3.72;1.95;;;26.80;93.40;;;;;;4957435;28;20051;-82
2022/09/05 11:19:06;;;;;;;4.65;1.92;;;26.90;93.10;;;;;;4955736;28;20475;-82
2022/09/05 11:22:02;;;;;;;9.88;2.13;;;26.90;92.60;;;;;;4956292;29;20106;-82
2022/09/05 11:24:30;;;;;;;4.30;2.03;;;26.90;92.50;;;;;;4955463;28;20511;-82
2022/09/05 11:27:20;;;;;;;4.65;1.73;;;27.00;91.80;;;;;;4956263;28;20046;-82
2022/09/05 11:30:23;;;;;;;4.80;2.00;;;27.10;91.50;;;;;;4955229;29;20510;-82
2022/09/05 11:33:08;;;;;;;3.00;2.03;;;27.10;91.80;;;;;;4877539;29;20048;-82
2022/09/05 11:35:56;;;;;;;7.82;2.05;;;27.20;92.20;;;;;;4951128;28;20059;-81
2022/09/05 11:38:43;;;;;;;2.50;2.20;;;27.20;91.20;;;;;;4956355;29;20451;-82
2022/09/05 11:41:46;;;;;;;4.32;1.88;;;27.20;91.00;;;;;;4956124;29;20143;-81
2022/09/05 11:44:23;;;;;;;4.38;1.92;;;27.20;90.70;;;;;;4957305;28;20062;-81
2022/09/05 11:46:57;;;;;;;2.70;1.52;;;27.20;91.00;;;;;;4955435;28;20079;-80
2022/09/05 11:49:31;;;;;;;5.80;1.88;;;27.30;88.40;;;;;;4956916;29;20047;-82
2022/09/05 11:52:35;;;;;;;2.25;1.58;;;27.30;87.00;;;;;;4955071;28;20130;-81
2022/09/05 11:55:19;;;;;;;40.13;2.50;;;27.40;86.90;;;;;;4956877;29;20126;-80
2022/09/05 11:58:18;;;;;;;2.08;1.27;;;27.50;84.80;;;;;;4954770;29;20047;-82
2022/09/05 12:01:27;;;;;;;3.95;1.58;;;27.60;83.70;;;;;;4953129;29;20066;-83
2022/09/05 12:04:07;;;;;;;4.47;1.63;;;27.60;82.10;;;;;;4902999;29;20087;-81
2022/09/05 12:07:04;;;;;;;2.65;1.48;;;27.70;82.30;;;;;;4954975;29;20043;-82
2022/09/05 12:10:11;;;;;;;3.15;1.60;;;27.80;81.10;;;;;;4962611;28;20047;-81
2022/09/05 12:12:52;;;;;;;4.63;1.60;;;27.90;81.40;;;;;;4966954;28;20059;-80
2022/09/05 12:15:24;;;;;;;5.20;1.60;;;28.00;80.40;;;;;;4954399;29;20509;-81
2022/09/05 12:18:12;;;;;;;2.17;1.48;;;27.90;79.40;;;;;;4961738;28;20043;-81
2022/09/05 12:20:47;;;;;;;2.30;1.70;;;27.90;79.50;;;;;;4955601;29;20058;-81
2022/09/05 12:23:26;;;;;;;2.13;1.33;;;27.90;78.90;;;;;;4955434;29;20051;-81
2022/09/05 12:25:59;;;;;;;8.98;1.58;;;27.80;79.10;;;;;;4959589;28;20525;-81
2022/09/05 12:28:32;;;;;;;6.53;1.48;;;27.70;79.00;;;;;;4960059;28;20047;-81
2022/09/05 12:31:18;;;;;;;5.30;1.77;;;27.60;78.80;;;;;;4938130;29;20050;-81
2022/09/05 12:33:50;;;;;;;2.42;1.75;;;27.60;79.20;;;;;;4954070;29;20054;-80
2022/09/05 12:36:34;;;;;;;3.15;1.60;;;27.60;78.60;;;;;;4937359;29;20039;-82
2022/09/05 12:39:05;;;;;;;6.13;1.40;;;27.60;78.90;;;;;;4954920;28;20047;-81
2022/09/05 12:41:50;;;;;;;2.75;1.65;;;27.70;77.80;;;;;;4953887;29;20051;-81
2022/09/05 12:44:41;;;;;;;3.80;1.35;;;27.70;76.40;;;;;;4953713;29;20050;-81
2022/09/05 12:47:22;;;;;;;2.38;1.45;;;27.80;76.60;;;;;;4955017;28;20395;-81
2022/09/05 12:50:05;;;;;;;1.90;1.40;;;27.80;77.50;;;;;;4955145;29;20552;-81
2022/09/05 12:52:32;;;;;;;2.97;1.52;;;27.80;76.40;;;;;;4955046;29;20051;-81
2022/09/05 12:55:08;;;;;;;2.33;1.45;;;27.90;74.50;;;;;;4954834;29;20364;-81
2022/09/05 12:57:39;;;;;;;3.53;1.60;;;27.90;75.10;;;;;;4953964;28;20062;-82
2022/09/05 13:00:20;;;;;;;8.40;1.50;;;28.00;74.90;;;;;;4960644;28;20077;-82
2022/09/05 13:02:56;;;;;;;4.63;1.40;;;28.00;73.90;;;;;;4965631;28;20043;-82
2022/09/05 13:05:44;;;;;;;2.42;1.52;;;28.00;73.60;;;;;;4955430;28;20167;-82
2022/09/05 13:08:19;;;;;;;6.10;1.45;;;28.00;73.30;;;;;;4950785;28;20515;-81
2022/09/05 13:10:50;;;;;;;2.55;1.65;;;28.00;74.00;;;;;;4953038;29;20039;-82
2022/09/05 13:13:28;;;;;;;61.53;4.68;;;28.10;73.70;;;;;;4954320;28;20506;-81
2022/09/05 13:15:56;;;;;;;8.15;1.80;;;28.10;73.40;;;;;;4954987;28;20432;-82
2022/09/05 13:18:38;;;;;;;7.85;1.63;;;28.10;73.10;;;;;;4954529;28;20047;-82
2022/09/05 13:21:17;;;;;;;1.80;1.60;;;28.10;73.10;;;;;;4974802;28;20072;-81
2022/09/05 13:24:10;;;;;;;3.17;1.58;;;28.20;73.10;;;;;;4969279;28;20431;-82
2022/09/05 13:26:54;;;;;;;2.72;1.50;;;28.20;72.70;;;;;;4955473;28;20508;-81
2022/09/05 13:29:27;;;;;;;3.47;1.40;;;28.10;72.30;;;;;;4953130;28;20062;-81
2022/09/05 13:32:37;;;;;;;3.42;1.30;;;28.00;71.30;;;;;;4952957;29;20079;-82
2022/09/05 13:35:28;;;;;;;2.97;1.58;;;27.90;72.20;;;;;;4953991;29;20108;-81
2022/09/05 13:38:23;;;;;;;2.30;1.20;;;27.80;72.70;;;;;;4952301;29;20043;-82
2022/09/05 13:40:59;;;;;;;2.55;1.52;;;27.80;73.20;;;;;;4954082;29;20426;-82
2022/09/05 13:43:38;;;;;;;2.35;1.50;;;27.90;73.00;;;;;;4952871;29;20079;-82
2022/09/05 13:46:09;;;;;;;2.53;1.27;;;28.00;72.30;;;;;;4953446;29;20395;-82
2022/09/05 13:48:55;;;;;;;1.92;1.30;;;28.10;72.70;;;;;;4953582;29;20047;-81
2022/09/05 13:51:49;;;;;;;1.80;1.10;;;28.30;71.80;;;;;;4953614;28;20039;-82
2022/09/05 13:54:37;;;;;;;5.93;1.95;;;28.40;72.00;;;;;;4970964;28;20070;-83
2022/09/05 13:57:30;;;;;;;6.75;1.50;;;28.50;70.90;;;;;;4936000;29;20048;-82
2022/09/05 14:00:07;;;;;;;2.35;1.48;;;28.70;70.10;;;;;;4917840;29;20052;-83
2022/09/05 14:02:52;;;;;;;2.28;1.30;;;28.80;70.20;;;;;;4953570;28;20055;-84
2022/09/05 14:05:29;;;;;;;6.20;1.98;;;28.90;69.40;;;;;;4953955;28;20471;-81
2022/09/05 14:08:17;;;;;;;4.70;1.25;;;28.90;69.00;;;;;;4953568;29;20055;-82
2022/09/05 14:11:20;;;;;;;2.70;1.33;;;29.00;69.20;;;;;;4953394;29;20043;-83
2022/09/05 14:14:09;;;;;;;2.75;1.70;;;29.00;69.20;;;;;;4951475;28;20054;-82
2022/09/05 14:16:49;;;;;;;3.55;1.27;;;29.10;68.10;;;;;;4952762;29;20380;-83
2022/09/05 14:22:09;;;;;;;2.42;1.20;;;29.20;66.90;;;;;;4951715;29;20427;-82
2022/09/05 14:24:42;;;;;;;1.20;1.10;;;29.30;66.40;;;;;;4954210;28;20086;-82
2022/09/05 14:27:16;;;;;;;6.23;1.43;;;29.20;65.30;;;;;;4953668;29;20051;-82
2022/09/05 14:29:51;;;;;;;5.38;1.35;;;29.10;64.50;;;;;;4952866;29;20350;-82
2022/09/05 14:32:17;;;;;;;1.52;1.38;;;29.00;66.30;;;;;;4934160;29;20094;-83
2022/09/05 14:34:43;;;;;;;1.10;0.95;;;28.90;66.60;;;;;;4933392;29;20071;-83
2022/09/05 14:37:24;;;;;;;2.72;1.20;;;28.80;66.30;;;;;;4953377;29;20114;-83
2022/09/05 14:39:58;;;;;;;4.80;1.30;;;28.70;66.40;;;;;;4934270;29;20448;-83
2022/09/05 14:42:39;;;;;;;3.28;1.60;;;28.80;67.00;;;;;;4936764;29;20087;-83
2022/09/05 14:45:37;;;;;;;1.35;1.05;;;28.80;67.20;;;;;;4940319;29;20444;-83
2022/09/05 14:48:30;;;;;;;2.22;1.23;;;28.80;67.40;;;;;;4958266;28;20179;-82
2022/09/05 14:51:19;;;;;;;3.17;1.20;;;28.80;66.00;;;;;;4957063;29;20603;-82
2022/09/05 14:54:27;;;;;;;5.55;1.35;;;28.80;67.20;;;;;;4957064;28;20117;-82
2022/09/05 14:57:00;;;;;;;3.70;1.20;;;28.70;67.10;;;;;;4937054;29;20126;-82
2022/09/05 14:59:34;;;;;;;2.08;1.02;;;28.70;66.70;;;;;;4947074;29;20130;-82
2022/09/05 15:02:18;;;;;;;5.03;1.38;;;28.70;67.30;;;;;;4957893;28;20054;-82
2022/09/05 15:04:48;;;;;;;2.00;1.20;;;28.60;66.60;;;;;;4955399;29;20107;-82
2022/09/05 15:07:25;;;;;;;4.75;1.30;;;28.60;65.80;;;;;;4956516;29;20055;-82
2022/09/05 15:10:17;;;;;;;4.53;1.30;;;28.60;66.30;;;;;;4954929;29;20082;-82
2022/09/05 15:12:53;;;;;;;4.22;1.30;;;28.60;66.40;;;;;;4954553;28;20054;-82
2022/09/05 15:15:37;;;;;;;1.40;1.20;;;28.50;65.40;;;;;;4938556;29;20065;-82
2022/09/05 15:18:12;;;;;;;2.70;1.10;;;28.50;65.90;;;;;;4953072;28;20074;-82
2022/09/05 15:20:41;;;;;;;3.13;1.42;;;28.40;66.30;;;;;;4956522;28;20574;-82
2022/09/05 15:23:27;;;;;;;2.17;1.33;;;28.30;64.90;;;;;;4956465;28;20511;-82
2022/09/05 15:26:01;;;;;;;5.43;1.42;;;28.20;65.10;;;;;;4957305;28;20447;-82
2022/09/05 15:28:36;;;;;;;1.55;1.45;;;28.20;66.00;;;;;;4955723;28;20066;-83
2022/09/05 15:31:09;;;;;;;3.38;1.63;;;28.10;66.80;;;;;;4954373;28;20133;-82
2022/09/05 15:33:39;;;;;;;4.80;1.55;;;28.10;67.10;;;;;;4956633;28;20051;-82
2022/09/05 15:36:12;;;;;;;2.45;1.40;;;28.10;66.80;;;;;;4955560;29;20043;-83
2022/09/05 15:38:40;;;;;;;3.80;1.20;;;28.10;66.80;;;;;;4954577;28;20050;-83
2022/09/05 15:41:12;;;;;;;4.72;2.03;;;28.10;66.90;;;;;;4954196;28;20130;-83
2022/09/05 15:43:57;;;;;;;6.10;1.42;;;28.10;67.10;;;;;;4956095;28;20048;-83
2022/09/05 15:46:37;;;;;;;3.13;1.33;;;28.00;67.30;;;;;;4945901;28;20043;-83
2022/09/05 15:49:09;;;;;;;3.05;1.38;;;28.00;67.40;;;;;;4954546;28;20047;-83
2022/09/05 15:51:41;;;;;;;3.05;1.40;;;27.80;68.30;;;;;;4954405;28;20048;-83
2022/09/05 15:54:24;;;;;;;3.63;1.30;;;27.80;68.10;;;;;;4955150;29;20051;-84
2022/09/05 15:56:52;;;;;;;2.88;1.33;;;27.70;69.10;;;;;;4955797;29;20051;-85
2022/09/05 15:59:29;;;;;;;1.90;1.30;;;27.60;69.50;;;;;;4954615;29;20495;-85
2022/09/05 16:01:55;;;;;;;3.80;1.58;;;27.50;69.70;;;;;;4956809;28;20050;-84
2022/09/05 16:04:23;;;;;;;3.65;1.30;;;27.40;68.20;;;;;;4955549;29;20047;-83
2022/09/05 16:06:54;;;;;;;1.65;1.30;;;27.40;69.30;;;;;;4954786;28;20051;-83
2022/09/05 16:09:37;;;;;;;2.35;1.40;;;27.30;72.90;;;;;;4939525;29;20055;-83
2022/09/05 16:12:09;;;;;;;4.68;1.60;;;27.20;75.00;;;;;;4955758;29;20141;-84
2022/09/05 16:14:50;;;;;;;3.13;1.55;;;27.00;76.00;;;;;;4956036;29;20399;-83
2022/09/05 16:17:28;;;;;;;2.78;1.67;;;26.90;76.90;;;;;;4955334;29;20468;-83
2022/09/05 16:20:00;;;;;;;4.47;1.55;;;26.80;78.40;;;;;;4954393;28;20039;-83
2022/09/05 16:22:32;;;;;;;3.67;1.30;;;26.70;78.70;;;;;;4939328;29;20055;-83
2022/09/05 16:25:06;;;;;;;4.53;1.65;;;26.60;79.00;;;;;;4956574;28;20047;-83
2022/09/05 16:27:44;;;;;;;;;;;26.50;80.40;;;;;;4939075;29;20065;-83
2022/09/05 16:30:18;;;;;;;7.55;1.70;;;26.40;81.60;;;;;;4953989;28;19926;-83
2022/09/05 16:32:44;;;;;;;3.15;1.60;;;26.30;81.30;;;;;;4954295;28;20126;-84
2022/09/05 16:35:14;;;;;;;2.33;1.17;;;26.30;81.70;;;;;;4953274;28;20075;-84
2022/09/05 16:37:51;;;;;;;2.80;1.48;;;26.30;82.20;;;;;;4954742;28;20043;-84
2022/09/05 16:40:37;;;;;;;4.25;1.45;;;26.20;83.10;;;;;;4953650;28;20615;-83
2022/09/05 16:43:09;;;;;;;3.60;1.65;;;26.20;82.90;;;;;;4924971;29;20043;-83
2022/09/05 16:46:03;;;;;;;3.97;1.85;;;26.10;83.30;;;;;;4928459;29;20066;-83
2022/09/05 16:48:46;;;;;;;8.90;1.57;;;26.10;84.20;;;;;;4943634;28;20054;-82
2022/09/05 16:51:33;;;;;;;8.68;1.90;;;26.00;83.30;;;;;;4937280;28;20081;-82
2022/09/05 16:54:29;;;;;;;3.00;1.60;;;26.00;86.10;;;;;;4942905;28;20130;-83
2022/09/05 16:57:13;;;;;;;3.72;1.33;;;25.90;88.20;;;;;;4954129;28;20118;-83
2022/09/05 16:59:42;;;;;;;4.50;1.52;;;25.90;85.40;;;;;;4954750;28;20055;-83
2022/09/05 17:02:24;;;;;;;5.28;1.58;;;25.80;85.70;;;;;;4953340;28;20398;-83
2022/09/05 17:05:28;;;;;;;1.58;1.33;;;25.70;84.90;;;;;;4954339;28;20526;-83
2022/09/05 17:08:32;;;;;;;1.70;1.60;;;25.70;84.90;;;;;;4952626;28;20047;-83
2022/09/05 17:11:01;;;;;;;2.85;1.40;;;25.60;87.90;;;;;;4876482;29;20060;-83
2022/09/05 17:13:39;;;;;;;3.55;1.67;;;25.50;87.90;;;;;;4928809;28;20066;-83
2022/09/05 17:16:09;;;;;;;3.30;1.42;;;25.50;89.70;;;;;;4952259;28;20093;-83
2022/09/05 17:18:36;;;;;;;7.40;1.50;;;25.40;90.20;;;;;;4952561;28;20417;-83
2022/09/05 17:21:09;;;;;;;7.68;1.77;;;25.30;90.50;;;;;;4955622;29;20079;-83
2022/09/05 17:23:38;;;;;;;3.25;1.45;;;25.20;90.10;;;;;;4952146;28;20062;-83
2022/09/05 17:26:05;;;;;;;3.67;1.40;;;25.10;91.00;;;;;;4954547;28;20047;-83
2022/09/05 17:28:49;;;;;;;1.65;1.52;;;25.00;91.80;;;;;;4954362;28;20403;-82
2022/09/05 17:31:36;;;;;;;;;;;24.90;93.20;;;;;;4954296;28;20046;-83
2022/09/05 17:34:19;;;;;;;3.42;1.75;;;24.80;93.40;;;;;;4936781;28;19930;-83
2022/09/05 17:37:20;;;;;;;6.50;1.80;;;24.70;94.40;;;;;;4953938;28;20043;-84
2022/09/05 17:39:54;;;;;;;3.50;1.60;;;24.50;94.00;;;;;;4885618;28;20094;-83
2022/09/05 17:42:38;;;;;;;2.90;1.80;;;24.40;94.50;;;;;;4955246;29;20487;-83
2022/09/05 17:45:16;;;;;;;3.72;1.60;;;24.30;95.00;;;;;;4936765;28;20490;-83
2022/09/05 17:47:47;;;;;;;4.22;1.73;;;24.20;95.20;;;;;;4954369;28;20106;-83
2022/09/05 17:50:18;;;;;;;2.45;1.90;;;24.10;95.80;;;;;;4937145;29;20039;-83
2022/09/05 17:52:57;;;;;;;5.38;1.83;;;23.90;96.60;;;;;;4953344;28;20043;-83
2022/09/05 17:55:46;;;;;;;3.80;1.63;;;23.90;97.00;;;;;;4952301;28;20068;-83
2022/09/05 17:58:27;;;;;;;10.98;2.00;;;23.80;97.70;;;;;;4939628;28;20067;-84
2022/09/05 18:01:28;;;;;;;14.18;2.38;;;23.60;98.60;;;;;;4954055;28;20562;-83
2022/09/05 18:03:57;;;;;;;5.82;1.90;;;23.50;99.60;;;;;;4902678;29;20067;-84
2022/09/05 18:06:30;;;;;;;4.72;2.30;;;23.40;99.90;;;;;;4953330;28;20051;-84
2022/09/05 18:08:56;;;;;;;3.77;2.10;;;23.30;99.90;;;;;;4953958;28;20051;-84
2022/09/05 18:11:24;;;;;;;6.05;1.83;;;23.10;99.90;;;;;;4955189;29;20043;-83
2022/09/05 18:14:00;;;;;;;3.88;1.83;;;23.10;99.90;;;;;;4952379;28;20048;-84
2022/09/05 18:16:39;;;;;;;5.97;1.80;;;23.00;99.90;;;;;;4956136;28;20117;-84
2022/09/05 18:19:14;;;;;;;5.65;2.60;;;22.90;99.90;;;;;;4956792;28;20055;-84
2022/09/05 18:22:05;;;;;;;6.45;1.98;;;22.90;99.90;;;;;;4957858;28;20379;-84
2022/09/05 18:24:48;;;;;;;17.15;2.85;;;22.80;99.90;;;;;;4958665;28;20403;-85
2022/09/05 18:27:28;;;;;;;105.57;6.10;;;22.70;99.90;;;;;;4957797;29;20106;-84
2022/09/05 18:30:00;;;;;;;58.42;4.57;;;22.70;99.90;;;;;;4956170;28;20399;-83
2022/09/05 18:32:50;;;;;;;5.88;2.10;;;22.60;99.90;;;;;;4955256;28;20047;-84
2022/09/05 18:35:24;;;;;;;3.80;1.90;;;22.50;99.90;;;;;;4957158;28;20043;-84
2022/09/05 18:38:13;;;;;;;11.93;2.25;;;22.50;99.90;;;;;;4940387;28;20047;-84
2022/09/05 18:40:45;;;;;;;9.75;2.13;;;22.40;99.90;;;;;;4945584;28;20566;-84
2022/09/05 18:43:11;;;;;;;4.85;1.98;;;22.30;99.90;;;;;;4956263;28;20078;-84
2022/09/05 18:45:41;;;;;;;10.82;2.00;;;22.30;99.90;;;;;;4957446;28;20079;-84
2022/09/05 18:48:08;;;;;;;13.80;2.10;;;22.20;99.90;;;;;;4954539;28;20130;-86
2022/09/05 18:50:35;;;;;;;4.30;2.10;;;22.20;99.90;;;;;;4954909;28;20040;-84
2022/09/05 18:53:06;;;;;;;6.03;2.25;;;22.20;99.90;;;;;;4957875;29;20102;-85
2022/09/05 18:55:33;;;;;;;6.63;2.20;;;22.20;99.90;;;;;;4956032;28;20050;-84
2022/09/05 18:58:03;;;;;;;6.88;2.42;;;22.20;99.90;;;;;;4957880;29;20138;-86
2022/09/05 19:00:35;;;;;;;4.88;2.25;;;22.20;99.90;;;;;;4954698;28;20139;-85
2022/09/05 19:03:26;;;;;;;9.32;2.83;;;22.10;99.90;;;;;;4952982;28;20051;-85
2022/09/05 19:06:06;;;;;;;8.48;2.58;;;22.10;99.90;;;;;;4960690;28;20054;-85
2022/09/05 19:08:40;;;;;;;6.25;2.40;;;22.00;99.90;;;;;;4969276;28;20087;-85
2022/09/05 19:11:08;;;;;;;7.85;2.13;;;22.00;99.90;;;;;;4954986;28;20050;-85
2022/09/05 19:13:38;;;;;;;8.95;1.92;;;22.00;99.90;;;;;;4954663;28;20510;-83
2022/09/05 19:16:10;;;;;;;3.92;1.75;;;22.10;99.90;;;;;;4939497;29;20052;-86
2022/09/05 19:18:56;;;;;;;5.53;1.70;;;22.20;99.90;;;;;;4957590;28;20062;-84
2022/09/05 19:21:22;;;;;;;7.07;2.10;;;22.20;99.90;;;;;;4957644;28;20051;-85
2022/09/05 19:23:48;;;;;;;15.52;2.72;;;22.10;99.90;;;;;;4955035;29;20115;-86
2022/09/05 19:26:13;;;;;;;23.23;2.80;;;22.10;99.90;;;;;;4956017;28;20047;-86
2022/09/05 19:28:42;;;;;;;5.57;2.10;;;22.00;99.90;;;;;;4957620;28;20118;-86
2022/09/05 19:31:20;;;;;;;3.30;1.70;;;22.00;99.90;;;;;;4939442;29;20043;-87
2022/09/05 19:33:50;;;;;;;6.30;2.03;;;22.00;99.90;;;;;;4957185;28;20051;-84
2022/09/05 19:36:25;;;;;;;4.95;2.20;;;22.00;99.90;;;;;;4957269;28;20110;-86
2022/09/05 19:38:54;;;;;;;3.72;2.20;;;22.00;99.90;;;;;;4955324;29;20047;-86
2022/09/05 19:41:23;;;;;;;5.82;2.30;;;22.00;99.90;;;;;;4939820;29;20055;-85
2022/09/05 19:44:00;;;;;;;7.72;1.92;;;22.10;99.90;;;;;;4956563;28;20055;-85
2022/09/05 19:46:27;;;;;;;6.60;2.85;;;22.10;99.90;;;;;;4956140;29;20054;-85
2022/09/05 19:49:00;;;;;;;5.32;1.90;;;22.10;99.90;;;;;;4955819;28;20055;-85
2022/09/05 19:51:26;;;;;;;6.22;2.40;;;22.20;99.90;;;;;;4956486;28;20136;-85
2022/09/05 19:53:54;;;;;;;5.40;1.92;;;22.20;99.90;;;;;;4956815;28;20566;-84
2022/09/05 19:56:24;;;;;;;10.98;2.83;;;22.10;99.90;;;;;;4956017;29;20103;-85
2022/09/05 19:58:50;;;;;;;13.38;2.30;;;22.10;99.90;;;;;;4952521;28;20059;-86
2022/09/05 20:01:19;;;;;;;5.78;2.22;;;22.10;99.90;;;;;;4956213;28;20122;-85
2022/09/05 20:03:49;;;;;;;4.07;2.30;;;22.10;99.90;;;;;;4954728;28;20043;-85
2022/09/05 20:06:19;;;;;;;9.82;2.13;;;22.10;99.90;;;;;;4939107;29;20043;-85
2022/09/05 20:08:45;;;;;;;3.03;1.80;;;22.10;99.90;;;;;;4955526;28;20051;-85
2022/09/05 20:11:11;;;;;;;7.05;2.28;;;22.00;99.90;;;;;;4939690;29;20047;-87
2022/09/05 20:13:37;;;;;;;10.85;2.03;;;22.00;99.90;;;;;;4953188;28;20047;-86